地図

経路データ

SID SEASON NUMBER BASIN SUBBASIN NAME ISO_TIME NATURE LAT LON WMO_WIND WMO_PRES WMO_AGENCY TRACK_TYPE DIST2LAND LANDFALL IFLAG USA_AGENCY USA_ATCF_ID USA_LAT USA_LON USA_RECORD USA_STATUS USA_WIND USA_PRES USA_SSHS USA_R34_NE USA_R34_SE USA_R34_SW USA_R34_NW USA_R50_NE USA_R50_SE USA_R50_SW USA_R50_NW USA_R64_NE USA_R64_SE USA_R64_SW USA_R64_NW USA_POCI USA_ROCI USA_RMW USA_EYE TOKYO_LAT TOKYO_LON TOKYO_GRADE TOKYO_WIND TOKYO_PRES TOKYO_R50_DIR TOKYO_R50_LONG TOKYO_R50_SHORT TOKYO_R30_DIR TOKYO_R30_LONG TOKYO_R30_SHORT TOKYO_LAND CMA_LAT CMA_LON CMA_CAT CMA_WIND CMA_PRES HKO_LAT HKO_LON HKO_CAT HKO_WIND HKO_PRES NEWDELHI_LAT NEWDELHI_LON NEWDELHI_GRADE NEWDELHI_WIND NEWDELHI_PRES NEWDELHI_CI NEWDELHI_DP NEWDELHI_POCI REUNION_LAT REUNION_LON REUNION_TYPE REUNION_WIND REUNION_PRES REUNION_TNUM REUNION_CI REUNION_RMW REUNION_R34_NE REUNION_R34_SE REUNION_R34_SW REUNION_R34_NW REUNION_R50_NE REUNION_R50_SE REUNION_R50_SW REUNION_R50_NW REUNION_R64_NE REUNION_R64_SE REUNION_R64_SW REUNION_R64_NW BOM_LAT BOM_LON BOM_TYPE BOM_WIND BOM_PRES BOM_TNUM BOM_CI BOM_RMW BOM_R34_NE BOM_R34_SE BOM_R34_SW BOM_R34_NW BOM_R50_NE BOM_R50_SE BOM_R50_SW BOM_R50_NW BOM_R64_NE BOM_R64_SE BOM_R64_SW BOM_R64_NW BOM_ROCI BOM_POCI BOM_EYE BOM_POS_METHOD BOM_PRES_METHOD NADI_LAT NADI_LON NADI_CAT NADI_WIND NADI_PRES WELLINGTON_LAT WELLINGTON_LON WELLINGTON_WIND WELLINGTON_PRES DS824_LAT DS824_LON DS824_STAGE DS824_WIND DS824_PRES TD9636_LAT TD9636_LON TD9636_STAGE TD9636_WIND TD9636_PRES TD9635_LAT TD9635_LON TD9635_WIND TD9635_PRES TD9635_ROCI NEUMANN_LAT NEUMANN_LON NEUMANN_CLASS NEUMANN_WIND NEUMANN_PRES MLC_LAT MLC_LON MLC_CLASS MLC_WIND MLC_PRES USA_GUST BOM_GUST BOM_GUST_PER REUNION_GUST REUNION_GUST_PER USA_SEAHGT USA_SEARAD_NE USA_SEARAD_SE USA_SEARAD_SW USA_SEARAD_NW STORM_SPEED STORM_DIR
1966309N26310 1966 108 NA NA LOIS 1966-11-04 12:00:00 SS 25.5000 -50.5000 30 hurdat_atl main 1745 1718 O_____________ hurdat_atl AL111966 25.5000 -50.5000 SD 30 -2 6 272
1966309N26310 1966 108 NA NA LOIS 1966-11-04 15:00:00 SS 25.5102 -50.8374 main 1718 1681 P_____________ AL111966 25.5102 -50.8374 SD 30 -2 6 270
1966309N26310 1966 108 NA NA LOIS 1966-11-04 18:00:00 SS 25.5000 -51.2000 30 hurdat_atl main 1681 1645 O_____________ hurdat_atl AL111966 25.5000 -51.2000 SD 30 -2 7 266
1966309N26310 1966 108 NA NA LOIS 1966-11-04 21:00:00 SS 25.4573 -51.6125 main 1645 1595 P_____________ AL111966 25.4573 -51.6125 SD 32 -2 8 263
1966309N26310 1966 108 NA NA LOIS 1966-11-05 00:00:00 SS 25.4000 -52.1000 35 hurdat_atl main 1595 1551 O_____________ hurdat_atl AL111966 25.4000 -52.1000 SS 35 -2 9 263
1966309N26310 1966 108 NA NA LOIS 1966-11-05 03:00:00 SS 25.3497 -52.6550 main 1537 1483 P_____________ AL111966 25.3497 -52.6550 SS 35 -2 11 265
1966309N26310 1966 108 NA NA LOIS 1966-11-05 06:00:00 SS 25.3000 -53.3000 35 hurdat_atl main 1483 1422 O_____________ hurdat_atl AL111966 25.3000 -53.3000 SS 35 -2 13 266
1966309N26310 1966 108 NA NA LOIS 1966-11-05 09:00:00 SS 25.2655 -54.0723 main 1414 1348 P_____________ AL111966 25.2655 -54.0723 SS 35 -2 14 266
1966309N26310 1966 108 NA NA LOIS 1966-11-05 12:00:00 SS 25.2000 -54.8000 35 hurdat_atl main 1348 1291 O_____________ hurdat_atl AL111966 25.2000 -54.8000 SS 35 -2 12 261
1966309N26310 1966 108 NA NA LOIS 1966-11-05 15:00:00 SS 25.0722 -55.4003 main 1291 1253 P_____________ AL111966 25.0722 -55.4003 SS 37 -2 9 250
1966309N26310 1966 108 NA NA LOIS 1966-11-05 18:00:00 SS 24.9000 -55.7000 40 998 hurdat_atl main 1253 1247 O_____________ hurdat_atl AL111966 24.9000 -55.7000 SS 40 998 -2 4 201
1966309N26310 1966 108 NA NA LOIS 1966-11-05 21:00:00 SS 24.7000 -55.5546 main 1250 1250 P_____________ AL111966 24.7000 -55.5546 SS 40 998 -2 6 131
1966309N26310 1966 108 NA NA LOIS 1966-11-06 00:00:00 TS 24.5000 -55.2000 40 998 hurdat_atl main 1273 1273 O_____________ hurdat_atl AL111966 24.5000 -55.2000 TS 40 998 0 7 124
1966309N26310 1966 108 NA NA LOIS 1966-11-06 03:00:00 TS 24.3350 -54.9501 main 1279 1279 P_____________ AL111966 24.3350 -54.9501 TS 40 0 5 123
1966309N26310 1966 108 NA NA LOIS 1966-11-06 06:00:00 TS 24.2000 -54.7000 40 hurdat_atl main 1301 1301 O_____________ hurdat_atl AL111966 24.2000 -54.7000 TS 40 0 5 119
1966309N26310 1966 108 NA NA LOIS 1966-11-06 09:00:00 TS 24.0850 -54.4500 main 1314 1314 P_____________ AL111966 24.0850 -54.4500 TS 42 0 5 114
1966309N26310 1966 108 NA NA LOIS 1966-11-06 12:00:00 TS 24.0000 -54.2000 45 hurdat_atl main 1336 1336 O_____________ hurdat_atl AL111966 24.0000 -54.2000 TS 45 0 5 108
1966309N26310 1966 108 NA NA LOIS 1966-11-06 15:00:00 TS 23.9350 -53.9500 main 1350 1350 P_____________ AL111966 23.9350 -53.9500 TS 47 0 5 102
1966309N26310 1966 108 NA NA LOIS 1966-11-06 18:00:00 TS 23.9000 -53.7000 50 995 hurdat_atl main 1377 1377 O_____________ hurdat_atl AL111966 23.9000 -53.7000 TS 50 995 0 5 94
1966309N26310 1966 108 NA NA LOIS 1966-11-06 21:00:00 TS 23.8999 -53.4576 main 1396 1396 P_____________ AL111966 23.8999 -53.4576 TS 50 0 5 90
1966309N26310 1966 108 NA NA LOIS 1966-11-07 00:00:00 TS 23.9000 -53.2000 50 hurdat_atl main 1424 1424 O_____________ hurdat_atl AL111966 23.9000 -53.2000 TS 50 0 5 97
1966309N26310 1966 108 NA NA LOIS 1966-11-07 03:00:00 TS 23.8425 -52.9074 main 1448 1448 P_____________ AL111966 23.8425 -52.9074 TS 52 0 6 100
1966309N26310 1966 108 NA NA LOIS 1966-11-07 06:00:00 TS 23.8000 -52.6000 55 hurdat_atl main 1476 1476 O_____________ hurdat_atl AL111966 23.8000 -52.6000 TS 55 0 5 92
1966309N26310 1966 108 NA NA LOIS 1966-11-07 09:00:00 TS 23.8197 -52.3299 main 1504 1504 P_____________ AL111966 23.8197 -52.3299 TS 57 0 6 80
1966309N26310 1966 108 NA NA LOIS 1966-11-07 12:00:00 TS 23.9000 -52.0000 60 hurdat_atl main 1537 1537 O_____________ hurdat_atl AL111966 23.9000 -52.0000 TS 60 0 7 74
1966309N26310 1966 108 NA NA LOIS 1966-11-07 15:00:00 TS 24.0274 -51.5449 main 1588 1588 P_____________ AL111966 24.0274 -51.5449 TS 62 0 10 72
1966309N26310 1966 108 NA NA LOIS 1966-11-07 18:00:00 TS 24.2000 -51.0000 65 986 hurdat_atl main 1644 1644 O_____________ hurdat_atl AL111966 24.2000 -51.0000 HU 65 986 1 10 73
1966309N26310 1966 108 NA NA LOIS 1966-11-07 21:00:00 TS 24.3314 -50.4807 main 1695 1695 P_____________ AL111966 24.3314 -50.4807 HU 67 1 12 70
1966309N26310 1966 108 NA NA LOIS 1966-11-08 00:00:00 TS 24.6000 -49.8000 70 hurdat_atl main 1773 1773 O_____________ hurdat_atl AL111966 24.6000 -49.8000 HU 70 1 17 63
1966309N26310 1966 108 NA NA LOIS 1966-11-08 03:00:00 TS 25.1030 -48.8173 main 1887 1887 P_____________ AL111966 25.1030 -48.8173 HU 70 1 23 58
1966309N26310 1966 108 NA NA LOIS 1966-11-08 06:00:00 TS 25.8000 -47.7000 70 hurdat_atl main 2017 2017 O_____________ hurdat_atl AL111966 25.8000 -47.7000 HU 70 1 24 53
1966309N26310 1966 108 NA NA LOIS 1966-11-08 09:00:00 TS 26.5517 -46.6548 main 2142 2142 P_____________ AL111966 26.5517 -46.6548 HU 70 1 25 48
1966309N26310 1966 108 NA NA LOIS 1966-11-08 12:00:00 TS 27.5000 -45.6000 70 hurdat_atl main 2228 2139 O_____________ hurdat_atl AL111966 27.5000 -45.6000 HU 70 1 29 42
1966309N26310 1966 108 NA NA LOIS 1966-11-08 15:00:00 TS 28.6821 -44.4993 main 2131 2038 P_____________ AL111966 28.6821 -44.4993 HU 72 1 32 38
1966309N26310 1966 108 NA NA LOIS 1966-11-08 18:00:00 TS 30.0000 -43.4000 75 hurdat_atl main 2031 1936 O_____________ hurdat_atl AL111966 30.0000 -43.4000 HU 75 1 33 36
1966309N26310 1966 108 NA NA LOIS 1966-11-08 21:00:00 TS 31.3599 -42.2913 main 1930 1860 P_____________ AL111966 31.3599 -42.2913 HU 75 1 32 35
1966309N26310 1966 108 NA NA LOIS 1966-11-09 00:00:00 TS 32.6000 -41.3000 75 hurdat_atl main 1855 1803 O_____________ hurdat_atl AL111966 32.6000 -41.3000 HU 75 1 26 34
1966309N26310 1966 108 NA NA LOIS 1966-11-09 03:00:00 TS 33.5310 -40.5358 main 1808 1764 P_____________ AL111966 33.5310 -40.5358 HU 75 1 21 34
1966309N26310 1966 108 NA NA LOIS 1966-11-09 06:00:00 TS 34.3000 -39.9000 75 hurdat_atl main 1764 1734 O_____________ hurdat_atl AL111966 34.3000 -39.9000 HU 75 1 19 34
1966309N26310 1966 108 NA NA LOIS 1966-11-09 09:00:00 TS 35.0641 -39.2626 main 1725 1705 P_____________ AL111966 35.0641 -39.2626 HU 75 1 18 35
1966309N26310 1966 108 NA NA LOIS 1966-11-09 12:00:00 TS 35.8000 -38.6000 75 983 hurdat_atl main 1705 1689 O_____________ hurdat_atl AL111966 35.8000 -38.6000 HU 75 983 1 19 38
1966309N26310 1966 108 NA NA LOIS 1966-11-09 15:00:00 TS 36.5496 -37.8361 main 1695 1680 P_____________ AL111966 36.5496 -37.8361 HU 72 986 1 20 41
1966309N26310 1966 108 NA NA LOIS 1966-11-09 18:00:00 TS 37.3000 -37.0000 70 989 hurdat_atl main 1682 1678 O_____________ hurdat_atl AL111966 37.3000 -37.0000 HU 70 989 1 20 43
1966309N26310 1966 108 NA NA LOIS 1966-11-09 21:00:00 TS 38.0576 -36.0921 main 1681 1681 P_____________ AL111966 38.0576 -36.0921 HU 70 1 21 43
1966309N26310 1966 108 NA NA LOIS 1966-11-10 00:00:00 TS 38.8000 -35.2000 70 hurdat_atl main 1692 1692 O_____________ hurdat_atl AL111966 38.8000 -35.2000 HU 70 1 19 42
1966309N26310 1966 108 NA NA LOIS 1966-11-10 03:00:00 TS 39.5064 -34.4324 main 1702 1696 P_____________ AL111966 39.5064 -34.4324 HU 70 1 18 40
1966309N26310 1966 108 NA NA LOIS 1966-11-10 06:00:00 TS 40.2000 -33.7000 70 hurdat_atl main 1707 1707 O_____________ hurdat_atl AL111966 40.2000 -33.7000 HU 70 1 18 40
1966309N26310 1966 108 NA NA LOIS 1966-11-10 09:00:00 TS 40.9222 -32.8996 main 1721 1715 P_____________ AL111966 40.9222 -32.8996 HU 67 1 18 41
1966309N26310 1966 108 NA NA LOIS 1966-11-10 12:00:00 TS 41.6000 -32.1000 65 988 hurdat_atl main 1739 1739 O_____________ hurdat_atl AL111966 41.6000 -32.1000 HU 65 988 1 17 43
1966309N26310 1966 108 NA NA LOIS 1966-11-10 15:00:00 TS 42.1867 -31.3481 main 1766 1725 P_____________ AL111966 42.1867 -31.3481 HU 62 0 16 45
1966309N26310 1966 108 NA NA LOIS 1966-11-10 18:00:00 ET 42.7000 -30.6000 60 hurdat_atl main 1725 1655 O_____________ hurdat_atl AL111966 42.7000 -30.6000 EX 60 -4 15 49
1966309N26310 1966 108 NA NA LOIS 1966-11-10 21:00:00 ET 43.1647 -29.7986 main 1654 1586 P_____________ AL111966 43.1647 -29.7986 EX 60 -4 15 52
1966309N26310 1966 108 NA NA LOIS 1966-11-11 00:00:00 ET 43.6000 -29.0000 60 hurdat_atl main 1586 1527 O_____________ hurdat_atl AL111966 43.6000 -29.0000 EX 60 -4 15 51
1966309N26310 1966 108 NA NA LOIS 1966-11-11 03:00:00 ET 44.0868 -28.2426 main 1519 1462 P_____________ AL111966 44.0868 -28.2426 EX 57 -4 14 50
1966309N26310 1966 108 NA NA LOIS 1966-11-11 06:00:00 ET 44.5000 -27.5000 55 hurdat_atl main 1462 1407 O_____________ hurdat_atl AL111966 44.5000 -27.5000 EX 55 -4 13 58
1966309N26310 1966 108 NA NA LOIS 1966-11-11 09:00:00 ET 44.7595 -26.7489 main 1400 1346 P_____________ AL111966 44.7595 -26.7489 EX 55 -4 11 69
1966309N26310 1966 108 NA NA LOIS 1966-11-11 12:00:00 ET 44.9000 -26.0000 55 hurdat_atl main 1346 1291 O_____________ hurdat_atl AL111966 44.9000 -26.0000 EX 55 -4 11 78
1966309N26310 1966 108 NA NA LOIS 1966-11-11 15:00:00 ET 44.9799 -25.2268 main 1284 1229 P_____________ AL111966 44.9799 -25.2268 EX 52 -4 11 85
1966309N26310 1966 108 NA NA LOIS 1966-11-11 18:00:00 ET 45.0000 -24.5000 50 hurdat_atl main 1229 1182 O_____________ hurdat_atl AL111966 45.0000 -24.5000 EX 50 -4 9 88
1966309N26310 1966 108 NA NA LOIS 1966-11-11 21:00:00 ET 45.0067 -23.8847 main 1182 1136 P_____________ AL111966 45.0067 -23.8847 EX 50 -4 8 90
1966309N26310 1966 108 NA NA LOIS 1966-11-12 00:00:00 ET 45.0000 -23.3000 50 hurdat_atl main 1136 1089 O_____________ hurdat_atl AL111966 45.0000 -23.3000 EX 50 -4 8 91
1966309N26310 1966 108 NA NA LOIS 1966-11-12 03:00:00 ET 44.9992 -22.6875 main 1089 1034 P_____________ AL111966 44.9992 -22.6875 EX 50 -4 9 90
1966309N26310 1966 108 NA NA LOIS 1966-11-12 06:00:00 ET 45.0000 -22.0000 50 hurdat_atl main 1034 972 O_____________ hurdat_atl AL111966 45.0000 -22.0000 EX 50 -4 11 90
1966309N26310 1966 108 NA NA LOIS 1966-11-12 09:00:00 ET 45.0075 -21.1803 main 972 903 P_____________ AL111966 45.0075 -21.1803 EX 47 -4 12 90
1966309N26310 1966 108 NA NA LOIS 1966-11-12 12:00:00 ET 45.0000 -20.3000 45 hurdat_atl main 903 842 O_____________ hurdat_atl AL111966 45.0000 -20.3000 EX 45 -4 12 91
1966309N26310 1966 108 NA NA LOIS 1966-11-12 15:00:00 ET 44.9798 -19.4281 main 834 770 P_____________ AL111966 44.9798 -19.4281 EX 45 -4 12 95
1966309N26310 1966 108 NA NA LOIS 1966-11-12 18:00:00 ET 44.9000 -18.6000 45 hurdat_atl main 770 712 O_____________ hurdat_atl AL111966 44.9000 -18.6000 EX 45 -4 11 103
1966309N26310 1966 108 NA NA LOIS 1966-11-12 21:00:00 ET 44.7297 -17.8396 main 704 653 P_____________ AL111966 44.7297 -17.8396 EX 45 -4 11 112
1966309N26310 1966 108 NA NA LOIS 1966-11-13 00:00:00 ET 44.5000 -17.2000 45 hurdat_atl main 653 610 O_____________ hurdat_atl AL111966 44.5000 -17.2000 EX 45 -4 9 118
1966309N26310 1966 108 NA NA LOIS 1966-11-13 03:00:00 ET 44.2797 -16.6678 main 610 573 P_____________ AL111966 44.2797 -16.6678 EX 45 -4 8 128
1966309N26310 1966 108 NA NA LOIS 1966-11-13 06:00:00 ET 44.0000 -16.3000 45 hurdat_atl main 573 553 O_____________ hurdat_atl AL111966 44.0000 -16.3000 EX 45 -4 8 144
1966309N26310 1966 108 NA NA LOIS 1966-11-13 09:00:00 ET 43.6521 -16.0443 main 545 542 P_____________ AL111966 43.6521 -16.0443 EX 42 -4 8 165
1966309N26310 1966 108 NA NA LOIS 1966-11-13 12:00:00 ET 43.2000 -16.0000 40 hurdat_atl main 542 542 O_____________ hurdat_atl AL111966 43.2000 -16.0000 EX 40 -4 11 186
1966309N26310 1966 108 NA NA LOIS 1966-11-13 15:00:00 ET 42.6077 -16.1992 main 562 562 P_____________ AL111966 42.6077 -16.1992 EX 37 -4 13 197
1966309N26310 1966 108 NA NA LOIS 1966-11-13 18:00:00 ET 42.0000 -16.5000 35 hurdat_atl main 596 596 O_____________ hurdat_atl AL111966 42.0000 -16.5000 EX 35 -4 12 198
1966309N26310 1966 108 NA NA LOIS 1966-11-13 21:00:00 ET 41.5048 -16.6918 main 626 626 P_____________ AL111966 41.5048 -16.6918 EX 32 -4 9 198
1966309N26310 1966 108 NA NA LOIS 1966-11-14 00:00:00 ET 41.1000 -16.9000 30 hurdat_atl main 656 656 O_____________ hurdat_atl AL111966 41.1000 -16.9000 EX 30 -4 8 207
1966309N26310 1966 108 NA NA LOIS 1966-11-14 03:00:00 ET 40.7778 -17.1782 main 690 688 P_____________ AL111966 40.7778 -17.1782 EX 30 -4 8 217
1966309N26310 1966 108 NA NA LOIS 1966-11-14 06:00:00 ET 40.5000 -17.5000 30 hurdat_atl main 708 O_____________ hurdat_atl AL111966 40.5000 -17.5000 EX 30 -4 7 221

IBTrACS Databaseについて

本データベースは、米国NOAAが公開する1842年以降の世界の熱帯低気圧のベストトラックデータアーカイブInternational Best Track Archive for Climate Stewardship (IBTrACS)を、ウェブで閲覧しやすい形式に変換したものです。

最終更新日:2022-05-24